createdAt,value
2023-02-19T00:03:41.122Z,85.99
2023-02-19T00:08:44.897Z,86.23
2023-02-19T00:13:50.363Z,86.46
2023-02-19T00:18:54.979Z,86.11
2023-02-19T00:24:01.384Z,86.01
2023-02-19T00:29:04.890Z,86.09
2023-02-19T00:34:08.215Z,86.21
2023-02-19T00:39:15.865Z,86.09
2023-02-19T00:44:19.641Z,85.82
2023-02-19T00:49:23.601Z,85.01
2023-02-19T00:54:26.770Z,83.81
2023-02-19T00:59:29.775Z,83.49
2023-02-19T01:04:32.911Z,83.08
2023-02-19T01:09:35.890Z,83.68
2023-02-19T01:14:39.085Z,83.82
2023-02-19T01:19:42.187Z,84.26
2023-02-19T01:24:45.308Z,83.83
2023-02-19T01:29:48.298Z,84.25
2023-02-19T01:34:51.300Z,83.96
2023-02-19T01:39:54.310Z,84.51
2023-02-19T01:45:18.938Z,85.16
2023-02-19T01:50:23.454Z,85.20
2023-02-19T01:55:26.665Z,85.48
2023-02-19T02:00:30.964Z,85.58
2023-02-19T02:05:46.493Z,85.63
2023-02-19T02:10:51.375Z,85.97
2023-02-19T02:16:23.163Z,85.47
2023-02-19T02:21:46.092Z,85.77
2023-02-19T02:27:01.077Z,86.39
2023-02-19T02:32:10.958Z,86.01
2023-02-19T02:37:16.048Z,86.02
2023-02-19T02:42:28.218Z,86.14
2023-02-19T02:47:44.942Z,86.28
2023-02-19T02:53:11.490Z,86.07
2023-02-19T02:58:16.752Z,85.44
2023-02-19T03:03:24.473Z,85.64
2023-02-19T03:08:31.790Z,85.83
2023-02-19T03:13:57.394Z,85.68
2023-02-19T03:19:20.167Z,85.67
2023-02-19T03:24:47.480Z,85.68
2023-02-19T03:29:54.538Z,85.68
2023-02-19T03:35:04.196Z,85.46
2023-02-19T03:40:08.671Z,85.44
2023-02-19T03:45:19.007Z,85.46
2023-02-19T03:50:44.637Z,84.99
2023-02-19T03:56:06.789Z,84.42
2023-02-19T04:01:20.034Z,84.66
2023-02-19T04:06:29.488Z,84.91
2023-02-19T04:11:33.733Z,84.45
2023-02-19T04:16:42.890Z,84.51
2023-02-19T04:21:47.424Z,84.36
2023-02-19T04:26:50.924Z,84.25
2023-02-19T04:31:53.965Z,84.46
2023-02-19T04:36:57.233Z,84.44
2023-02-19T04:42:00.441Z,84.41
2023-02-19T04:47:03.543Z,84.51
2023-02-19T04:52:06.648Z,84.66
2023-02-19T04:57:09.856Z,84.80
2023-02-19T05:02:13.064Z,84.74
2023-02-19T05:07:16.580Z,84.81
2023-02-19T05:12:19.790Z,84.66
2023-02-19T05:17:23.096Z,84.36
2023-02-19T05:22:26.324Z,84.51
2023-02-19T05:27:31.972Z,84.76
2023-02-19T05:32:35.909Z,84.91
2023-02-19T05:37:39.035Z,85.29
2023-02-19T05:42:42.003Z,85.16
2023-02-19T05:47:45.005Z,85.09
2023-02-19T05:52:48.109Z,85.28
2023-02-19T05:57:51.222Z,85.10
2023-02-19T06:02:54.878Z,85.04
2023-02-19T06:07:58.861Z,85.31
2023-02-19T06:13:02.071Z,85.37
2023-02-19T06:18:05.379Z,85.11
2023-02-19T06:23:08.381Z,84.94
2023-02-19T06:28:11.536Z,85.13
2023-02-19T06:33:14.703Z,85.14
2023-02-19T06:38:17.701Z,85.05
2023-02-19T06:43:20.712Z,85.00
2023-02-19T06:48:23.953Z,84.79
2023-02-19T06:53:27.751Z,84.44
2023-02-19T06:58:32.580Z,84.44
2023-02-19T07:03:35.688Z,84.33
2023-02-19T07:08:38.897Z,84.04
2023-02-19T07:13:42.101Z,83.89
2023-02-19T07:18:46.214Z,83.63
2023-02-19T07:23:50.297Z,83.40
2023-02-19T07:28:54.204Z,82.93
2023-02-19T07:33:58.619Z,82.31
2023-02-19T07:39:02.236Z,82.20
2023-02-19T07:44:06.061Z,82.06
2023-02-19T07:49:09.376Z,81.90
2023-02-19T07:54:13.806Z,81.87
2023-02-19T07:59:19.895Z,81.83
2023-02-19T08:04:22.993Z,81.54
2023-02-19T08:09:26.403Z,80.85
2023-02-19T08:14:30.032Z,81.15
2023-02-19T08:19:33.333Z,81.03
2023-02-19T08:24:39.711Z,80.10
2023-02-19T08:29:42.918Z,79.76
2023-02-19T08:34:46.023Z,78.90
2023-02-19T08:39:49.129Z,78.71
2023-02-19T08:44:52.235Z,78.55
2023-02-19T08:49:55.361Z,78.88
2023-02-19T08:54:58.661Z,79.20
2023-02-19T09:00:01.953Z,79.35
2023-02-19T09:05:08.548Z,79.71
2023-02-19T09:10:14.367Z,79.82
2023-02-19T09:15:19.718Z,79.43
2023-02-19T09:20:23.219Z,78.23
2023-02-19T09:25:27.727Z,76.16
2023-02-19T09:30:30.872Z,72.44
2023-02-19T09:35:34.040Z,69.37
2023-02-19T09:40:38.583Z,67.95
2023-02-19T09:45:42.098Z,65.22
2023-02-19T09:50:48.897Z,62.07
2023-02-19T09:55:53.527Z,63.80
2023-02-19T10:00:59.062Z,62.45
2023-02-19T10:06:11.147Z,59.21
2023-02-19T10:11:16.152Z,57.02
2023-02-19T10:16:25.196Z,55.57
2023-02-19T10:21:29.020Z,53.27
2023-02-19T10:26:35.599Z,52.73
2023-02-19T10:31:39.682Z,54.41
2023-02-19T10:36:45.530Z,56.55
2023-02-19T10:41:51.228Z,55.70
2023-02-19T10:46:57.727Z,54.20
2023-02-19T10:52:18.010Z,54.34
2023-02-19T10:57:30.694Z,54.79
2023-02-19T11:02:34.207Z,53.65
2023-02-19T11:07:39.162Z,53.67
2023-02-19T11:12:48.099Z,52.11
2023-02-19T11:18:08.508Z,53.43
2023-02-19T11:23:18.951Z,54.56
2023-02-19T11:28:32.852Z,53.66
2023-02-19T11:33:35.952Z,54.95
2023-02-19T11:38:39.167Z,52.63
2023-02-19T11:43:51.277Z,52.22
2023-02-19T11:49:30.540Z,52.62
2023-02-19T11:54:54.817Z,53.48
2023-02-19T12:00:30.637Z,53.50
2023-02-19T12:05:56.952Z,52.82
2023-02-19T12:11:05.186Z,53.24
2023-02-19T12:16:39.825Z,54.73
2023-02-19T12:22:12.633Z,53.20
2023-02-19T12:27:29.202Z,52.59
2023-02-19T12:32:50.069Z,52.46
2023-02-19T12:38:12.116Z,52.61
2023-02-19T12:43:24.863Z,51.97
2023-02-19T12:48:40.137Z,52.67
2023-02-19T12:53:53.183Z,52.41
2023-02-19T12:59:04.039Z,54.56
2023-02-19T13:04:37.468Z,53.86
2023-02-19T13:09:56.267Z,52.81
2023-02-19T13:15:05.409Z,52.71
2023-02-19T13:20:23.758Z,54.31
2023-02-19T13:25:50.323Z,54.70
2023-02-19T13:31:00.674Z,54.91
2023-02-19T13:36:16.910Z,54.27
2023-02-19T13:41:30.154Z,55.43
2023-02-19T13:46:38.322Z,55.48
2023-02-19T13:51:51.638Z,55.33
2023-02-19T13:57:26.130Z,55.11
2023-02-19T14:02:33.417Z,53.84
2023-02-19T14:07:49.601Z,55.00
2023-02-19T14:12:53.304Z,55.11
2023-02-19T14:17:57.442Z,55.52
2023-02-19T14:23:09.850Z,56.01
2023-02-19T14:28:18.910Z,56.57
2023-02-19T14:33:28.455Z,57.08
2023-02-19T14:39:01.151Z,57.58
2023-02-19T14:44:13.365Z,57.56
2023-02-19T14:49:26.407Z,57.12
2023-02-19T14:54:41.298Z,55.68
2023-02-19T15:00:00.620Z,55.21
2023-02-19T15:05:26.319Z,55.23
2023-02-19T15:10:32.658Z,55.75
2023-02-19T15:15:41.212Z,56.69
2023-02-19T15:20:45.057Z,57.29
2023-02-19T15:25:52.753Z,57.82
2023-02-19T15:30:59.517Z,58.48
2023-02-19T15:36:07.078Z,58.90
2023-02-19T15:41:22.099Z,59.20
2023-02-19T15:46:26.970Z,59.04
2023-02-19T15:51:43.531Z,58.99
2023-02-19T15:56:50.984Z,59.43
2023-02-19T16:01:54.859Z,59.58
2023-02-19T16:07:03.392Z,59.62
2023-02-19T16:12:24.381Z,59.82
2023-02-19T16:17:28.962Z,59.93
2023-02-19T16:22:41.088Z,60.28
2023-02-19T16:27:44.899Z,60.81
2023-02-19T16:32:48.103Z,61.14
2023-02-19T16:37:58.554Z,61.42
2023-02-19T16:43:04.558Z,61.77
2023-02-19T16:48:09.357Z,62.64
2023-02-19T16:53:20.505Z,62.80
2023-02-19T16:58:25.749Z,63.29
2023-02-19T17:03:29.159Z,63.92
2023-02-19T17:08:39.039Z,64.77
2023-02-19T17:13:43.638Z,65.21
2023-02-19T17:18:47.281Z,65.09
2023-02-19T17:23:50.696Z,65.32
2023-02-19T17:29:02.517Z,66.28
2023-02-19T17:34:06.025Z,66.56
2023-02-19T17:39:15.669Z,66.70
2023-02-19T17:44:18.915Z,66.32
2023-02-19T17:49:22.197Z,66.08
2023-02-19T17:54:27.663Z,65.58
2023-02-19T17:59:32.305Z,65.06
2023-02-19T18:04:37.020Z,64.74
2023-02-19T18:09:41.794Z,64.55
2023-02-19T18:14:48.380Z,64.43
2023-02-19T18:19:53.436Z,64.48
2023-02-19T18:24:56.852Z,64.62
2023-02-19T18:30:00.518Z,64.83
2023-02-19T18:35:06.089Z,65.06
2023-02-19T18:40:13.947Z,65.19
2023-02-19T18:45:23.200Z,65.75
2023-02-19T18:50:28.640Z,66.20
2023-02-19T18:55:35.960Z,66.51
2023-02-19T19:00:41.827Z,66.61
2023-02-19T19:05:46.392Z,66.80
2023-02-19T19:10:50.817Z,67.61
2023-02-19T19:15:54.405Z,67.80
2023-02-19T19:21:03.779Z,67.59
2023-02-19T19:26:07.607Z,67.60
2023-02-19T19:31:14.403Z,67.62
2023-02-19T19:36:23.317Z,67.86
2023-02-19T19:41:26.966Z,68.13
2023-02-19T19:46:31.787Z,68.16
2023-02-19T19:51:36.140Z,67.81
2023-02-19T19:56:45.053Z,68.22
2023-02-19T20:01:53.182Z,68.23
2023-02-19T20:06:59.747Z,68.36
2023-02-19T20:12:03.916Z,68.47
2023-02-19T20:17:09.786Z,68.48
2023-02-19T20:22:12.892Z,68.47
2023-02-19T20:27:16.120Z,68.77
2023-02-19T20:32:19.349Z,68.70
2023-02-19T20:37:24.357Z,69.33
2023-02-19T20:42:29.519Z,69.61
2023-02-19T20:47:34.667Z,69.87
2023-02-19T20:52:37.978Z,69.87
2023-02-19T20:57:41.494Z,70.02
2023-02-19T21:02:46.088Z,70.70
2023-02-19T21:07:49.861Z,69.94
2023-02-19T21:12:54.561Z,70.51
2023-02-19T21:17:57.908Z,71.61
2023-02-19T21:23:02.502Z,73.27
2023-02-19T21:28:09.445Z,73.77
2023-02-19T21:33:13.573Z,75.33
2023-02-19T21:38:16.989Z,75.55
2023-02-19T21:43:20.431Z,75.27
2023-02-19T21:48:24.331Z,76.37
2023-02-19T21:53:28.249Z,75.65
2023-02-19T21:58:31.456Z,76.94
2023-02-19T22:03:34.564Z,77.14
2023-02-19T22:08:37.667Z,76.97
2023-02-19T22:13:40.874Z,77.33
2023-02-19T22:18:51.883Z,77.48
2023-02-19T22:23:55.585Z,77.99
2023-02-19T22:28:59.865Z,78.37
2023-02-19T22:34:03.131Z,78.53
2023-02-19T22:39:08.990Z,78.24
2023-02-19T22:44:12.705Z,78.75
2023-02-19T22:49:16.233Z,77.65
2023-02-19T22:54:25.171Z,77.84
2023-02-19T22:59:28.176Z,78.88
2023-02-19T23:04:31.582Z,79.15
2023-02-19T23:09:34.698Z,80.98
2023-02-19T23:14:38.115Z,80.27
2023-02-19T23:19:41.222Z,80.31
2023-02-19T23:24:44.634Z,80.20
2023-02-19T23:29:47.842Z,80.39
2023-02-19T23:34:51.565Z,81.15
2023-02-19T23:39:54.616Z,81.64
2023-02-19T23:44:57.778Z,80.96
2023-02-19T23:50:01.286Z,80.84
2023-02-19T23:55:05.926Z,81.06
